createdAt,value
2019-02-20T00:01:10.538Z,4.70
2019-02-20T00:03:42.488Z,4.60
2019-02-20T00:06:17.551Z,4.70
2019-02-20T00:08:53.497Z,4.60
2019-02-20T00:11:28.040Z,4.70
2019-02-20T00:13:59.384Z,4.60
2019-02-20T00:16:32.893Z,4.60
2019-02-20T00:19:08.018Z,4.60
2019-02-20T00:21:44.771Z,4.50
2019-02-20T00:24:22.182Z,4.50
2019-02-20T00:26:57.841Z,4.50
2019-02-20T00:29:35.833Z,4.50
2019-02-20T00:32:09.298Z,4.40
2019-02-20T00:34:56.550Z,4.40
2019-02-20T00:38:07.226Z,4.50
2019-02-20T00:40:44.616Z,4.50
2019-02-20T00:43:24.222Z,4.70
2019-02-20T00:46:15.505Z,4.80
2019-02-20T00:49:16.599Z,4.80
2019-02-20T00:52:24.512Z,4.80
2019-02-20T00:55:02.705Z,4.80
2019-02-20T00:57:54.117Z,4.90
2019-02-20T01:00:34.596Z,4.90
2019-02-20T01:03:09.067Z,4.90
2019-02-20T01:05:48.281Z,5.00
2019-02-20T01:08:40.542Z,4.90
2019-02-20T01:11:19.271Z,4.90
2019-02-20T01:14:00.718Z,4.80
2019-02-20T01:16:37.159Z,4.90
2019-02-20T01:19:11.406Z,4.80
2019-02-20T01:21:54.481Z,4.80
2019-02-20T01:24:30.674Z,4.80
2019-02-20T01:27:09.326Z,4.80
2019-02-20T01:29:46.565Z,4.80
2019-02-20T01:32:21.824Z,4.80
2019-02-20T01:35:02.756Z,4.80
2019-02-20T01:37:37.812Z,4.80
2019-02-20T01:40:18.504Z,4.80
2019-02-20T01:43:06.303Z,4.80
2019-02-20T01:45:39.515Z,4.80
2019-02-20T01:48:21.732Z,4.80
2019-02-20T01:51:08.429Z,4.70
2019-02-20T01:53:49.165Z,4.70
2019-02-20T01:56:29.467Z,4.70
2019-02-20T01:59:10.833Z,4.70
2019-02-20T02:01:47.327Z,4.80
2019-02-20T02:04:27.650Z,4.80
2019-02-20T02:07:05.651Z,4.80
2019-02-20T02:09:43.791Z,4.80
2019-02-20T02:12:37.387Z,4.90
2019-02-20T02:15:20.419Z,4.80
2019-02-20T02:18:09.857Z,4.80
2019-02-20T02:20:56.018Z,4.90
2019-02-20T02:23:34.855Z,5.00
2019-02-20T02:26:40.792Z,5.00
2019-02-20T02:29:41.993Z,5.00
2019-02-20T02:33:01.022Z,5.00
2019-02-20T02:35:55.181Z,5.00
2019-02-20T02:38:29.759Z,5.00
2019-02-20T02:41:24.838Z,5.00
2019-02-20T02:44:03.777Z,5.00
2019-02-20T02:46:53.723Z,5.00
2019-02-20T02:49:30.138Z,5.00
2019-02-20T02:52:08.781Z,5.00
2019-02-20T02:54:50.209Z,5.00
2019-02-20T02:57:34.974Z,5.00
2019-02-20T03:00:10.537Z,4.90
2019-02-20T03:02:53.377Z,4.90
2019-02-20T03:05:28.970Z,4.90
2019-02-20T03:08:06.181Z,5.00
2019-02-20T03:10:58.464Z,5.00
2019-02-20T03:13:35.508Z,5.00
2019-02-20T03:16:14.553Z,5.00
2019-02-20T03:19:13.205Z,5.00
2019-02-20T03:21:50.855Z,4.90
2019-02-20T03:24:34.845Z,4.90
2019-02-20T03:27:15.355Z,4.90
2019-02-20T03:29:45.265Z,4.90
2019-02-20T03:32:31.222Z,4.90
2019-02-20T03:35:06.747Z,4.90
2019-02-20T03:37:39.246Z,4.90
2019-02-20T03:40:20.230Z,4.90
2019-02-20T03:42:54.000Z,4.90
2019-02-20T03:45:35.034Z,4.80
2019-02-20T03:48:05.758Z,4.80
2019-02-20T03:50:40.355Z,4.80
2019-02-20T03:53:17.215Z,4.80
2019-02-20T03:55:52.370Z,4.70
2019-02-20T03:58:28.293Z,4.70
2019-02-20T04:01:02.772Z,4.70
2019-02-20T04:03:34.544Z,4.70
2019-02-20T04:06:07.943Z,4.70
2019-02-20T04:08:45.745Z,4.70
2019-02-20T04:11:29.003Z,4.80
2019-02-20T04:14:06.359Z,4.70
2019-02-20T04:16:40.542Z,4.70
2019-02-20T04:19:14.550Z,4.70
2019-02-20T04:21:52.019Z,4.60
2019-02-20T04:24:33.519Z,4.60
2019-02-20T04:27:13.341Z,4.50
2019-02-20T04:29:57.096Z,4.50
2019-02-20T04:32:33.289Z,4.50
2019-02-20T04:35:28.826Z,4.50
2019-02-20T04:38:15.127Z,4.40
2019-02-20T04:40:58.928Z,4.40
2019-02-20T04:43:54.889Z,4.40
2019-02-20T04:46:28.837Z,4.50
2019-02-20T04:49:04.049Z,4.50
2019-02-20T04:51:39.228Z,4.40
2019-02-20T04:54:20.250Z,4.40
2019-02-20T04:57:02.119Z,4.40
2019-02-20T04:59:36.383Z,4.40
2019-02-20T05:02:11.263Z,4.40
2019-02-20T05:04:45.704Z,4.30
2019-02-20T05:07:19.665Z,4.30
2019-02-20T05:09:56.303Z,4.20
2019-02-20T05:12:39.794Z,4.20
2019-02-20T05:15:15.447Z,4.20
2019-02-20T05:18:00.654Z,4.20
2019-02-20T05:20:46.795Z,4.10
2019-02-20T05:23:27.193Z,4.10
2019-02-20T05:26:12.626Z,4.00
2019-02-20T05:28:53.495Z,4.10
2019-02-20T05:31:51.407Z,4.10
2019-02-20T05:34:34.769Z,4.20
2019-02-20T05:37:20.542Z,4.30
2019-02-20T05:40:15.990Z,4.30
2019-02-20T05:42:53.715Z,4.20
2019-02-20T05:45:31.272Z,4.20
2019-02-20T05:48:06.532Z,4.10
2019-02-20T05:50:45.221Z,4.00
2019-02-20T05:53:21.087Z,3.90
2019-02-20T05:55:56.257Z,3.90
2019-02-20T05:58:45.047Z,3.90
2019-02-20T06:01:18.160Z,3.90
2019-02-20T06:03:56.470Z,3.90
2019-02-20T06:06:37.712Z,3.90
2019-02-20T06:09:17.747Z,3.90
2019-02-20T06:11:53.728Z,3.90
2019-02-20T06:14:31.568Z,4.00
2019-02-20T06:17:05.506Z,4.00
2019-02-20T06:19:42.131Z,4.00
2019-02-20T06:22:20.624Z,4.00
2019-02-20T06:25:02.304Z,4.10
2019-02-20T06:27:36.651Z,4.20
2019-02-20T06:30:08.309Z,4.20
2019-02-20T06:32:50.078Z,4.30
2019-02-20T06:35:27.570Z,4.30
2019-02-20T06:38:11.029Z,4.30
2019-02-20T06:40:45.605Z,4.30
2019-02-20T06:43:27.850Z,4.40
2019-02-20T06:46:00.925Z,4.40
2019-02-20T06:48:37.072Z,4.40
2019-02-20T06:51:14.955Z,4.40
2019-02-20T06:53:54.102Z,4.40
2019-02-20T06:56:51.203Z,4.50
2019-02-20T06:59:32.884Z,4.60
2019-02-20T07:02:17.055Z,4.60
2019-02-20T07:05:46.451Z,4.70
2019-02-20T07:08:43.558Z,4.70
2019-02-20T07:11:34.011Z,4.80
2019-02-20T07:14:58.003Z,4.80
2019-02-20T07:17:56.828Z,4.90
2019-02-20T07:21:13.874Z,4.90
2019-02-20T07:24:09.527Z,5.00
2019-02-20T07:27:02.239Z,5.10
2019-02-20T07:29:59.897Z,5.10
2019-02-20T07:32:27.571Z,5.20
2019-02-20T07:34:55.161Z,5.20
2019-02-20T07:37:26.484Z,5.30
2019-02-20T07:39:54.115Z,5.40
2019-02-20T07:42:25.917Z,5.40
2019-02-20T07:44:59.387Z,5.50
2019-02-20T07:47:39.678Z,5.50
2019-02-20T07:50:13.677Z,5.60
2019-02-20T07:52:51.231Z,5.60
2019-02-20T07:55:28.557Z,5.70
2019-02-20T07:58:04.479Z,5.70
2019-02-20T08:00:38.115Z,5.80
2019-02-20T08:03:12.499Z,5.90
2019-02-20T08:05:51.653Z,5.90
2019-02-20T08:08:33.308Z,6.00
2019-02-20T08:11:10.603Z,6.10
2019-02-20T08:13:47.633Z,6.10
2019-02-20T08:16:21.705Z,6.10
2019-02-20T08:19:02.167Z,6.20
2019-02-20T08:21:35.754Z,6.20
2019-02-20T08:24:11.799Z,6.30
2019-02-20T08:26:49.484Z,6.40
2019-02-20T08:29:27.489Z,6.40
2019-02-20T08:31:58.548Z,6.40
2019-02-20T08:34:35.264Z,6.50
2019-02-20T08:37:19.936Z,6.60
2019-02-20T08:39:59.372Z,6.70
2019-02-20T08:42:40.582Z,6.70
2019-02-20T08:45:12.092Z,6.80
2019-02-20T08:47:47.610Z,6.90
2019-02-20T08:50:22.436Z,7.00
2019-02-20T08:52:57.213Z,7.10
2019-02-20T08:55:32.332Z,7.20
2019-02-20T08:58:07.888Z,7.30
2019-02-20T09:00:47.271Z,7.40
2019-02-20T09:03:24.402Z,7.50
2019-02-20T09:06:19.498Z,7.60
2019-02-20T09:08:59.026Z,7.80
2019-02-20T09:11:56.087Z,7.80
2019-02-20T09:14:38.106Z,7.90
2019-02-20T09:17:37.531Z,7.90
2019-02-20T09:20:29.219Z,7.90
2019-02-20T09:23:05.179Z,7.90
2019-02-20T09:25:45.590Z,7.90
2019-02-20T09:28:19.437Z,8.00
2019-02-20T09:30:53.169Z,8.00
2019-02-20T09:33:54.025Z,8.10
2019-02-20T09:36:30.141Z,8.20
2019-02-20T09:39:54.218Z,8.30
2019-02-20T09:42:31.533Z,8.30
2019-02-20T09:45:03.059Z,8.40
2019-02-20T09:47:44.523Z,8.50
2019-02-20T09:50:18.162Z,8.50
2019-02-20T09:53:00.855Z,8.60
2019-02-20T09:55:33.943Z,8.70
2019-02-20T09:58:25.165Z,8.80
2019-02-20T10:04:33.416Z,9.00
2019-02-20T10:07:23.232Z,9.20
2019-02-20T10:09:54.691Z,9.20
2019-02-20T10:12:45.743Z,9.10
2019-02-20T10:15:39.781Z,9.10
2019-02-20T10:18:19.187Z,9.20
2019-02-20T10:21:01.251Z,9.10
2019-02-20T10:23:45.528Z,9.30
2019-02-20T10:26:27.923Z,9.30
2019-02-20T10:29:15.760Z,9.30
2019-02-20T10:31:54.046Z,9.40
2019-02-20T10:34:30.387Z,9.60
2019-02-20T10:37:28.462Z,9.70
2019-02-20T10:40:10.656Z,9.60
2019-02-20T10:43:13.612Z,9.70
2019-02-20T10:46:07.603Z,9.60
2019-02-20T10:48:49.245Z,9.60
2019-02-20T10:51:24.535Z,9.60
2019-02-20T10:54:03.237Z,9.60
2019-02-20T10:56:47.275Z,9.70
2019-02-20T10:59:33.106Z,9.80
2019-02-20T11:02:33.147Z,9.70
2019-02-20T11:05:08.360Z,9.80
2019-02-20T11:07:53.542Z,9.90
2019-02-20T11:10:34.721Z,9.90
2019-02-20T11:13:14.264Z,9.90
2019-02-20T11:16:00.721Z,9.80
2019-02-20T11:18:33.946Z,9.90
2019-02-20T11:21:31.382Z,10.00
2019-02-20T11:24:36.298Z,10.20
2019-02-20T11:27:28.372Z,10.30
2019-02-20T11:30:28.402Z,10.40
2019-02-20T11:33:05.027Z,10.60
2019-02-20T11:35:47.400Z,10.70
2019-02-20T11:38:26.321Z,10.70
2019-02-20T11:41:13.571Z,10.80
2019-02-20T11:43:58.410Z,10.70
2019-02-20T11:46:29.736Z,10.50
2019-02-20T11:49:08.584Z,10.70
2019-02-20T11:51:58.330Z,10.80
2019-02-20T11:54:42.760Z,10.90
2019-02-20T11:58:03.477Z,11.10
2019-02-20T12:00:46.202Z,11.20
2019-02-20T12:06:50.505Z,11.30
2019-02-20T12:09:36.209Z,11.40
2019-02-20T12:12:19.245Z,11.60
2019-02-20T12:15:25.426Z,11.70
2019-02-20T12:18:17.537Z,11.80
2019-02-20T12:20:59.298Z,11.90
2019-02-20T12:27:51.235Z,11.90
2019-02-20T12:30:51.016Z,11.90
2019-02-20T12:33:54.505Z,11.80
2019-02-20T12:36:38.298Z,11.90
2019-02-20T12:39:51.468Z,11.80
2019-02-20T12:42:57.027Z,11.90
2019-02-20T12:45:49.598Z,12.00
2019-02-20T12:49:25.638Z,11.90
2019-02-20T12:52:16.473Z,12.00
2019-02-20T12:54:59.298Z,12.10
2019-02-20T12:57:37.723Z,12.10
2019-02-20T13:00:38.698Z,12.10
2019-02-20T13:03:34.312Z,12.30
2019-02-20T13:06:29.768Z,12.40
2019-02-20T13:09:14.596Z,12.30
2019-02-20T13:12:01.327Z,12.30
2019-02-20T13:14:33.906Z,12.50
2019-02-20T13:17:17.620Z,12.60
2019-02-20T13:20:00.960Z,12.70
2019-02-20T13:22:49.926Z,12.70
2019-02-20T13:29:31.226Z,12.80
2019-02-20T13:32:40.787Z,13.00
2019-02-20T13:35:32.582Z,13.10
2019-02-20T13:38:20.463Z,13.10
2019-02-20T13:40:58.120Z,13.00
2019-02-20T13:43:32.314Z,13.10
2019-02-20T13:46:02.664Z,13.20
2019-02-20T13:48:45.268Z,13.20
2019-02-20T13:51:47.459Z,13.00
2019-02-20T13:54:44.014Z,13.20
2019-02-20T14:01:47.229Z,13.40
2019-02-20T14:04:44.499Z,13.30
2019-02-20T14:08:39.003Z,13.30
2019-02-20T14:10:45.901Z,13.30
2019-02-20T14:17:26.182Z,13.30
2019-02-20T14:20:33.869Z,13.20
2019-02-20T14:23:16.628Z,13.30
2019-02-20T14:26:59.557Z,13.20
2019-02-20T14:29:17.919Z,13.10
2019-02-20T14:45:05.884Z,13.30
2019-02-20T14:47:56.076Z,13.20
2019-02-20T14:50:40.181Z,13.10
2019-02-20T14:53:43.901Z,13.20
2019-02-20T14:56:22.703Z,13.30
2019-02-20T14:59:17.492Z,13.30
2019-02-20T15:02:24.126Z,13.30
2019-02-20T15:06:14.180Z,13.30
2019-02-20T15:08:53.996Z,13.20
2019-02-20T15:11:45.103Z,13.40
2019-02-20T15:14:49.015Z,13.50
2019-02-20T15:18:07.212Z,13.30
2019-02-20T15:21:13.379Z,13.10
2019-02-20T15:23:47.599Z,13.10
2019-02-20T15:30:13.041Z,12.80
2019-02-20T15:33:00.627Z,12.80
2019-02-20T15:35:39.301Z,12.80
2019-02-20T15:38:29.271Z,12.70
2019-02-20T15:41:22.828Z,12.80
2019-02-20T15:43:57.649Z,12.80
2019-02-20T15:46:35.373Z,12.70
2019-02-20T15:49:58.592Z,12.60
2019-02-20T15:52:34.844Z,12.60
2019-02-20T15:55:36.576Z,12.50
2019-02-20T15:58:40.726Z,12.40
2019-02-20T16:01:26.345Z,12.40
2019-02-20T16:05:08.835Z,12.40
2019-02-20T16:08:20.973Z,12.30
2019-02-20T16:11:15.496Z,12.30
2019-02-20T16:13:56.833Z,12.20
2019-02-20T16:16:31.781Z,12.10
2019-02-20T16:22:40.310Z,12.00
2019-02-20T16:25:41.074Z,11.90
2019-02-20T16:28:21.999Z,11.80
2019-02-20T16:31:27.093Z,11.70
2019-02-20T16:34:54.312Z,11.70
2019-02-20T16:37:27.772Z,11.50
2019-02-20T16:40:05.747Z,11.40
2019-02-20T16:42:39.356Z,11.20
2019-02-20T16:45:30.389Z,11.10
2019-02-20T16:47:58.157Z,11.00
2019-02-20T16:50:30.276Z,10.90
2019-02-20T16:53:01.122Z,10.90
2019-02-20T16:55:28.759Z,10.70
2019-02-20T16:58:03.998Z,10.70
2019-02-20T17:00:32.068Z,10.50
2019-02-20T17:03:00.222Z,10.50
2019-02-20T17:05:30.242Z,10.40
2019-02-20T17:07:59.346Z,10.30
2019-02-20T17:10:29.920Z,10.20
2019-02-20T17:12:57.530Z,10.20
2019-02-20T17:15:31.497Z,10.00
2019-02-20T17:18:01.747Z,10.00
2019-02-20T17:20:29.582Z,10.00
2019-02-20T17:23:00.142Z,10.00
2019-02-20T17:25:41.455Z,9.90
2019-02-20T17:28:15.212Z,9.80
2019-02-20T17:30:53.102Z,9.60
2019-02-20T17:33:28.929Z,9.50
2019-02-20T17:36:17.706Z,9.40
2019-02-20T17:38:54.630Z,9.40
2019-02-20T17:41:30.841Z,9.20
2019-02-20T17:44:05.495Z,9.20
2019-02-20T17:46:37.799Z,9.10
2019-02-20T17:49:11.210Z,9.10
2019-02-20T17:51:47.807Z,9.00
2019-02-20T17:54:18.508Z,8.90
2019-02-20T17:56:47.460Z,8.90
2019-02-20T17:59:18.829Z,8.80
2019-02-20T18:01:51.742Z,8.70
2019-02-20T18:04:22.301Z,8.60
2019-02-20T18:06:55.538Z,8.60
2019-02-20T18:09:26.470Z,8.40
2019-02-20T18:11:56.016Z,8.40
2019-02-20T18:14:28.561Z,8.40
2019-02-20T18:16:58.626Z,8.30
2019-02-20T18:19:33.408Z,8.30
2019-02-20T18:22:01.309Z,8.30
2019-02-20T18:24:36.317Z,8.20
2019-02-20T18:27:09.163Z,8.20
2019-02-20T18:29:51.902Z,8.10
2019-02-20T18:32:22.160Z,8.00
2019-02-20T18:34:53.430Z,8.00
2019-02-20T18:37:28.352Z,7.80
2019-02-20T18:39:56.734Z,7.70
2019-02-20T18:42:29.518Z,7.60
2019-02-20T18:44:59.609Z,7.50
2019-02-20T18:47:30.417Z,7.50
2019-02-20T18:49:58.376Z,7.50
2019-02-20T18:52:36.010Z,7.50
2019-02-20T18:55:16.142Z,7.40
2019-02-20T18:57:43.943Z,7.50
2019-02-20T19:00:16.443Z,7.50
2019-02-20T19:02:46.581Z,7.50
2019-02-20T19:05:19.323Z,7.40
2019-02-20T19:07:47.613Z,7.40
2019-02-20T19:10:19.433Z,7.30
2019-02-20T19:13:34.889Z,7.30
2019-02-20T19:16:27.557Z,7.20
2019-02-20T19:19:44.816Z,7.10
2019-02-20T19:22:44.089Z,7.10
2019-02-20T19:25:32.093Z,7.20
2019-02-20T19:28:29.273Z,7.20
2019-02-20T19:31:46.521Z,7.20
2019-02-20T19:35:04.755Z,7.10
2019-02-20T19:38:06.204Z,7.00
2019-02-20T19:41:03.980Z,6.80
2019-02-20T19:44:02.269Z,6.80
2019-02-20T19:46:57.183Z,6.70
2019-02-20T19:50:14.043Z,6.70
2019-02-20T19:53:09.950Z,6.70
2019-02-20T19:56:07.646Z,6.70
2019-02-20T19:58:58.524Z,6.70
2019-02-20T20:02:04.088Z,6.70
2019-02-20T20:04:49.689Z,6.80
2019-02-20T20:08:05.115Z,6.90
2019-02-20T20:11:07.345Z,7.00
2019-02-20T20:14:21.718Z,7.10
2019-02-20T20:17:26.023Z,7.10
2019-02-20T20:20:18.787Z,7.20
2019-02-20T20:23:19.808Z,7.30
2019-02-20T20:26:29.072Z,7.30
2019-02-20T20:29:16.572Z,7.30
2019-02-20T20:32:33.409Z,7.30
2019-02-20T20:35:22.499Z,7.40
2019-02-20T20:38:23.372Z,7.60
2019-02-20T20:41:23.641Z,7.70
2019-02-20T20:44:28.111Z,7.80
2019-02-20T20:47:30.982Z,7.90
2019-02-20T20:50:28.418Z,7.90
2019-02-20T20:53:46.934Z,8.10
2019-02-20T20:57:11.260Z,8.10
2019-02-20T21:00:03.218Z,8.10
2019-02-20T21:02:42.498Z,8.10
2019-02-20T21:05:53.731Z,8.10
2019-02-20T21:08:45.752Z,8.10
2019-02-20T21:11:46.822Z,8.20
2019-02-20T21:14:51.844Z,8.30
2019-02-20T21:17:57.358Z,8.40
2019-02-20T21:21:10.835Z,8.40
2019-02-20T21:24:37.930Z,8.40
2019-02-20T21:27:39.968Z,8.40
2019-02-20T21:30:24.529Z,8.50
2019-02-20T21:33:32.160Z,8.50
2019-02-20T21:36:46.155Z,8.50
2019-02-20T21:39:46.578Z,8.50
2019-02-20T21:43:14.455Z,8.60
2019-02-20T21:46:17.831Z,8.60
2019-02-20T21:49:24.957Z,8.60
2019-02-20T21:52:21.068Z,8.60
2019-02-20T21:55:41.765Z,8.60
2019-02-20T21:58:41.600Z,8.60
2019-02-20T22:01:42.591Z,8.70
2019-02-20T22:04:40.656Z,8.70
2019-02-20T22:07:34.669Z,8.70
2019-02-20T22:10:22.750Z,8.50
2019-02-20T22:13:22.299Z,8.50
2019-02-20T22:16:30.364Z,8.40
2019-02-20T22:20:04.347Z,8.30
2019-02-20T22:23:08.087Z,8.30
2019-02-20T22:26:19.581Z,8.20
2019-02-20T22:29:04.018Z,8.20
2019-02-20T22:32:10.386Z,8.10
2019-02-20T22:35:13.781Z,7.90
2019-02-20T22:38:41.681Z,7.80
2019-02-20T22:42:17.632Z,7.70
2019-02-20T22:45:40.643Z,7.50
2019-02-20T22:48:57.488Z,7.50
2019-02-20T22:52:02.297Z,7.50
2019-02-20T22:58:44.873Z,7.40
2019-02-20T23:01:59.988Z,7.20
2019-02-20T23:05:01.505Z,7.20
2019-02-20T23:07:55.637Z,7.10
2019-02-20T23:11:03.445Z,7.10
2019-02-20T23:14:30.985Z,7.00
2019-02-20T23:16:59.216Z,6.80
2019-02-20T23:19:27.507Z,6.70
2019-02-20T23:21:58.237Z,6.70
2019-02-20T23:24:26.690Z,6.70
2019-02-20T23:27:01.582Z,6.70
2019-02-20T23:29:38.394Z,6.60
2019-02-20T23:32:13.837Z,6.50
2019-02-20T23:34:51.508Z,6.50
2019-02-20T23:37:29.382Z,6.50
2019-02-20T23:40:04.844Z,6.50
2019-02-20T23:42:49.347Z,6.50
2019-02-20T23:45:24.994Z,6.50
2019-02-20T23:47:58.623Z,6.50
2019-02-20T23:50:33.673Z,6.50
2019-02-20T23:53:14.030Z,6.50
2019-02-20T23:55:55.523Z,6.40
2019-02-20T23:58:30.229Z,6.40
